sensor_id;sensor_type;location;lat;lon;timestamp;pressure;altitude;pressure_sealevel;temperature;humidity
79690;BME280;69156;55.932;-3.238;2024-03-17T00:02:00;100270.00;;;9.31;69.00
79690;BME280;69156;55.932;-3.238;2024-03-17T00:04:26;100265.00;;;9.28;69.60
79690;BME280;69156;55.932;-3.238;2024-03-17T00:06:51;100258.00;;;9.18;69.70
79690;BME280;69156;55.932;-3.238;2024-03-17T00:09:17;100257.00;;;9.08;70.20
79690;BME280;69156;55.932;-3.238;2024-03-17T00:11:42;100256.00;;;9.14;69.70
79690;BME280;69156;55.932;-3.238;2024-03-17T00:14:09;100259.00;;;9.15;69.80
79690;BME280;69156;55.932;-3.238;2024-03-17T00:16:34;100255.00;;;9.16;70.20
79690;BME280;69156;55.932;-3.238;2024-03-17T00:19:00;100254.00;;;9.15;70.00
79690;BME280;69156;55.932;-3.238;2024-03-17T00:21:25;100250.00;;;9.22;69.70
79690;BME280;69156;55.932;-3.238;2024-03-17T00:23:51;100251.00;;;9.28;69.70
79690;BME280;69156;55.932;-3.238;2024-03-17T00:26:17;100251.00;;;9.34;69.40
79690;BME280;69156;55.932;-3.238;2024-03-17T00:28:42;100248.00;;;9.27;69.60
79690;BME280;69156;55.932;-3.238;2024-03-17T00:31:08;100249.00;;;9.23;69.70
79690;BME280;69156;55.932;-3.238;2024-03-17T00:33:34;100244.00;;;9.29;69.80
79690;BME280;69156;55.932;-3.238;2024-03-17T00:35:59;100244.00;;;9.36;69.60
79690;BME280;69156;55.932;-3.238;2024-03-17T00:38:25;100239.00;;;9.39;69.60
79690;BME280;69156;55.932;-3.238;2024-03-17T00:40:50;100238.00;;;9.45;69.50
79690;BME280;69156;55.932;-3.238;2024-03-17T00:43:16;100237.00;;;9.36;70.10
79690;BME280;69156;55.932;-3.238;2024-03-17T00:45:42;100233.00;;;9.36;70.10
79690;BME280;69156;55.932;-3.238;2024-03-17T00:48:07;100231.00;;;9.41;70.00
79690;BME280;69156;55.932;-3.238;2024-03-17T00:50:33;100236.00;;;9.48;69.90
79690;BME280;69156;55.932;-3.238;2024-03-17T00:52:59;100233.00;;;9.49;70.20
79690;BME280;69156;55.932;-3.238;2024-03-17T00:55:24;100229.00;;;9.38;70.30
79690;BME280;69156;55.932;-3.238;2024-03-17T00:57:50;100227.00;;;9.48;70.10
79690;BME280;69156;55.932;-3.238;2024-03-17T01:00:16;100224.00;;;9.41;70.30
79690;BME280;69156;55.932;-3.238;2024-03-17T01:02:42;100218.00;;;9.25;69.60
79690;BME280;69156;55.932;-3.238;2024-03-17T01:05:08;100211.00;;;9.32;68.80
79690;BME280;69156;55.932;-3.238;2024-03-17T01:07:33;100208.00;;;9.39;68.60
79690;BME280;69156;55.932;-3.238;2024-03-17T01:09:59;100204.00;;;9.46;69.00
79690;BME280;69156;55.932;-3.238;2024-03-17T01:12:25;100205.00;;;9.29;69.80
79690;BME280;69156;55.932;-3.238;2024-03-17T01:14:50;100204.00;;;9.44;69.00
79690;BME280;69156;55.932;-3.238;2024-03-17T01:17:16;100203.00;;;9.66;68.00
79690;BME280;69156;55.932;-3.238;2024-03-17T01:19:42;100203.00;;;9.67;68.10
79690;BME280;69156;55.932;-3.238;2024-03-17T01:22:07;100197.00;;;9.82;67.30
79690;BME280;69156;55.932;-3.238;2024-03-17T01:24:33;100194.00;;;9.77;67.60
79690;BME280;69156;55.932;-3.238;2024-03-17T01:26:58;100190.00;;;9.59;67.60
79690;BME280;69156;55.932;-3.238;2024-03-17T01:29:24;100190.00;;;9.73;68.10
79690;BME280;69156;55.932;-3.238;2024-03-17T01:31:50;100187.00;;;9.50;68.80
79690;BME280;69156;55.932;-3.238;2024-03-17T01:34:15;100184.00;;;9.58;68.70
79690;BME280;69156;55.932;-3.238;2024-03-17T01:36:41;100182.00;;;9.41;69.80
79690;BME280;69156;55.932;-3.238;2024-03-17T01:39:07;100180.00;;;9.52;69.10
79690;BME280;69156;55.932;-3.238;2024-03-17T01:41:32;100180.00;;;9.61;68.40
79690;BME280;69156;55.932;-3.238;2024-03-17T01:43:58;100180.00;;;9.50;69.10
79690;BME280;69156;55.932;-3.238;2024-03-17T01:46:24;100182.00;;;9.34;69.60
79690;BME280;69156;55.932;-3.238;2024-03-17T01:48:50;100180.00;;;9.32;70.50
79690;BME280;69156;55.932;-3.238;2024-03-17T01:51:17;100176.00;;;9.14;70.00
79690;BME280;69156;55.932;-3.238;2024-03-17T01:53:44;100174.00;;;9.46;69.80
79690;BME280;69156;55.932;-3.238;2024-03-17T01:56:10;100172.00;;;9.48;69.40
79690;BME280;69156;55.932;-3.238;2024-03-17T01:58:36;100172.00;;;9.52;69.20
79690;BME280;69156;55.932;-3.238;2024-03-17T02:01:02;100175.00;;;9.33;70.20
79690;BME280;69156;55.932;-3.238;2024-03-17T02:03:28;100174.00;;;9.47;70.10
79690;BME280;69156;55.932;-3.238;2024-03-17T02:05:53;100172.00;;;9.57;69.40
79690;BME280;69156;55.932;-3.238;2024-03-17T02:08:19;100166.00;;;9.38;70.20
79690;BME280;69156;55.932;-3.238;2024-03-17T02:10:44;100165.00;;;9.43;70.50
79690;BME280;69156;55.932;-3.238;2024-03-17T02:13:10;100163.00;;;9.55;70.00
79690;BME280;69156;55.932;-3.238;2024-03-17T02:15:36;100158.00;;;9.66;69.60
79690;BME280;69156;55.932;-3.238;2024-03-17T02:18:02;100163.00;;;9.50;70.50
79690;BME280;69156;55.932;-3.238;2024-03-17T02:20:28;100160.00;;;9.32;70.90
79690;BME280;69156;55.932;-3.238;2024-03-17T02:22:53;100153.00;;;9.60;69.60
79690;BME280;69156;55.932;-3.238;2024-03-17T02:25:19;100154.00;;;9.46;70.00
79690;BME280;69156;55.932;-3.238;2024-03-17T02:27:44;100153.00;;;9.45;70.20
79690;BME280;69156;55.932;-3.238;2024-03-17T02:30:10;100154.00;;;9.27;70.60
79690;BME280;69156;55.932;-3.238;2024-03-17T02:32:36;100157.00;;;9.39;70.80
79690;BME280;69156;55.932;-3.238;2024-03-17T02:35:01;100154.00;;;9.40;70.80
79690;BME280;69156;55.932;-3.238;2024-03-17T02:37:27;100149.00;;;9.51;70.40
79690;BME280;69156;55.932;-3.238;2024-03-17T02:39:53;100150.00;;;9.41;70.50
79690;BME280;69156;55.932;-3.238;2024-03-17T02:42:19;100154.00;;;9.25;71.50
79690;BME280;69156;55.932;-3.238;2024-03-17T02:44:44;100149.00;;;9.28;71.00
79690;BME280;69156;55.932;-3.238;2024-03-17T02:47:10;100148.00;;;9.34;71.00
79690;BME280;69156;55.932;-3.238;2024-03-17T02:49:36;100150.00;;;9.39;71.00
79690;BME280;69156;55.932;-3.238;2024-03-17T02:52:02;100142.00;;;9.46;70.40
79690;BME280;69156;55.932;-3.238;2024-03-17T02:54:28;100148.00;;;9.37;70.80
79690;BME280;69156;55.932;-3.238;2024-03-17T02:56:53;100146.00;;;9.29;70.90
79690;BME280;69156;55.932;-3.238;2024-03-17T02:59:19;100139.00;;;9.36;71.00
79690;BME280;69156;55.932;-3.238;2024-03-17T03:01:45;100141.00;;;9.35;70.90
79690;BME280;69156;55.932;-3.238;2024-03-17T03:04:10;100141.00;;;9.27;71.30
79690;BME280;69156;55.932;-3.238;2024-03-17T03:06:37;100134.00;;;9.11;71.90
79690;BME280;69156;55.932;-3.238;2024-03-17T03:09:03;100136.00;;;9.19;71.90
79690;BME280;69156;55.932;-3.238;2024-03-17T03:11:29;100133.00;;;9.07;72.40
79690;BME280;69156;55.932;-3.238;2024-03-17T03:13:54;100133.00;;;9.12;72.30
79690;BME280;69156;55.932;-3.238;2024-03-17T03:16:20;100134.00;;;9.32;71.50
79690;BME280;69156;55.932;-3.238;2024-03-17T03:18:46;100129.00;;;9.40;70.80
79690;BME280;69156;55.932;-3.238;2024-03-17T03:21:11;100128.00;;;9.25;71.40
79690;BME280;69156;55.932;-3.238;2024-03-17T03:23:37;100125.00;;;9.24;71.40
79690;BME280;69156;55.932;-3.238;2024-03-17T03:26:03;100126.00;;;9.28;71.30
79690;BME280;69156;55.932;-3.238;2024-03-17T03:28:30;100126.00;;;9.23;71.40
79690;BME280;69156;55.932;-3.238;2024-03-17T03:30:56;100120.00;;;9.19;71.70
79690;BME280;69156;55.932;-3.238;2024-03-17T03:33:23;100117.00;;;9.18;71.80
79690;BME280;69156;55.932;-3.238;2024-03-17T03:35:48;100114.00;;;9.18;71.80
79690;BME280;69156;55.932;-3.238;2024-03-17T03:38:15;100114.00;;;9.17;71.90
79690;BME280;69156;55.932;-3.238;2024-03-17T03:40:40;100115.00;;;9.02;72.70
79690;BME280;69156;55.932;-3.238;2024-03-17T03:43:06;100112.00;;;9.09;71.80
79690;BME280;69156;55.932;-3.238;2024-03-17T03:45:31;100106.00;;;9.08;71.70
79690;BME280;69156;55.932;-3.238;2024-03-17T03:47:57;100107.00;;;9.08;71.90
79690;BME280;69156;55.932;-3.238;2024-03-17T03:50:23;100116.00;;;9.05;72.00
79690;BME280;69156;55.932;-3.238;2024-03-17T03:52:49;100114.00;;;9.05;72.00
79690;BME280;69156;55.932;-3.238;2024-03-17T03:55:15;100111.00;;;8.86;72.20
79690;BME280;69156;55.932;-3.238;2024-03-17T03:57:41;100107.00;;;8.97;71.80
79690;BME280;69156;55.932;-3.238;2024-03-17T04:00:07;100108.00;;;8.80;72.10
79690;BME280;69156;55.932;-3.238;2024-03-17T04:02:33;100111.00;;;8.83;72.00
79690;BME280;69156;55.932;-3.238;2024-03-17T04:04:59;100111.00;;;8.64;72.20
79690;BME280;69156;55.932;-3.238;2024-03-17T04:07:24;100114.00;;;8.56;72.30
79690;BME280;69156;55.932;-3.238;2024-03-17T04:09:50;100115.00;;;8.70;72.50
79690;BME280;69156;55.932;-3.238;2024-03-17T04:12:15;100107.00;;;8.54;72.70
79690;BME280;69156;55.932;-3.238;2024-03-17T04:14:41;100102.00;;;8.34;73.20
79690;BME280;69156;55.932;-3.238;2024-03-17T04:17:07;100100.00;;;8.48;73.20
79690;BME280;69156;55.932;-3.238;2024-03-17T04:19:32;100098.00;;;8.52;73.30
79690;BME280;69156;55.932;-3.238;2024-03-17T04:21:58;100097.00;;;8.50;73.40
79690;BME280;69156;55.932;-3.238;2024-03-17T04:24:23;100096.00;;;8.57;73.50
79690;BME280;69156;55.932;-3.238;2024-03-17T04:26:49;100096.00;;;8.55;72.80
79690;BME280;69156;55.932;-3.238;2024-03-17T04:29:15;100094.00;;;8.64;72.30
79690;BME280;69156;55.932;-3.238;2024-03-17T04:31:40;100091.00;;;8.44;73.10
79690;BME280;69156;55.932;-3.238;2024-03-17T04:34:06;100088.00;;;8.48;72.60
79690;BME280;69156;55.932;-3.238;2024-03-17T04:36:31;100082.00;;;8.35;73.10
79690;BME280;69156;55.932;-3.238;2024-03-17T04:38:57;100092.00;;;8.21;73.40
79690;BME280;69156;55.932;-3.238;2024-03-17T04:41:22;100089.00;;;8.18;73.60
79690;BME280;69156;55.932;-3.238;2024-03-17T04:43:48;100092.00;;;8.12;73.80
79690;BME280;69156;55.932;-3.238;2024-03-17T04:46:14;100090.00;;;8.14;73.80
79690;BME280;69156;55.932;-3.238;2024-03-17T04:48:39;100086.00;;;8.08;74.10
79690;BME280;69156;55.932;-3.238;2024-03-17T04:51:05;100082.00;;;8.10;74.00
79690;BME280;69156;55.932;-3.238;2024-03-17T04:53:30;100089.00;;;8.06;73.70
79690;BME280;69156;55.932;-3.238;2024-03-17T04:56:00;100086.00;;;8.17;73.40
79690;BME280;69156;55.932;-3.238;2024-03-17T04:58:26;100083.00;;;8.14;73.60
79690;BME280;69156;55.932;-3.238;2024-03-17T05:00:51;100078.00;;;8.23;73.30
79690;BME280;69156;55.932;-3.238;2024-03-17T05:03:17;100085.00;;;8.06;73.50
79690;BME280;69156;55.932;-3.238;2024-03-17T05:05:43;100087.00;;;8.02;73.80
79690;BME280;69156;55.932;-3.238;2024-03-17T05:08:08;100089.00;;;8.06;73.90
79690;BME280;69156;55.932;-3.238;2024-03-17T05:10:34;100091.00;;;8.12;73.30
79690;BME280;69156;55.932;-3.238;2024-03-17T05:12:59;100092.00;;;8.01;73.60
79690;BME280;69156;55.932;-3.238;2024-03-17T05:15:25;100092.00;;;8.01;73.90
79690;BME280;69156;55.932;-3.238;2024-03-17T05:17:51;100092.00;;;8.09;73.80
79690;BME280;69156;55.932;-3.238;2024-03-17T05:20:16;100088.00;;;8.10;74.00
79690;BME280;69156;55.932;-3.238;2024-03-17T05:22:42;100088.00;;;8.29;74.10
79690;BME280;69156;55.932;-3.238;2024-03-17T05:25:08;100091.00;;;8.17;74.00
79690;BME280;69156;55.932;-3.238;2024-03-17T05:27:33;100093.00;;;8.11;74.10
79690;BME280;69156;55.932;-3.238;2024-03-17T05:29:59;100087.00;;;8.22;74.10
79690;BME280;69156;55.932;-3.238;2024-03-17T05:32:24;100084.00;;;8.23;74.20
79690;BME280;69156;55.932;-3.238;2024-03-17T05:34:50;100087.00;;;8.26;74.20
79690;BME280;69156;55.932;-3.238;2024-03-17T05:37:16;100089.00;;;8.21;74.10
79690;BME280;69156;55.932;-3.238;2024-03-17T05:39:41;100088.00;;;8.27;74.10
79690;BME280;69156;55.932;-3.238;2024-03-17T05:42:07;100087.00;;;8.16;74.20
79690;BME280;69156;55.932;-3.238;2024-03-17T05:44:32;100082.00;;;8.23;74.10
79690;BME280;69156;55.932;-3.238;2024-03-17T05:46:58;100081.00;;;8.23;73.30
79690;BME280;69156;55.932;-3.238;2024-03-17T05:49:23;100086.00;;;8.22;73.00
79690;BME280;69156;55.932;-3.238;2024-03-17T05:51:49;100086.00;;;8.19;72.90
79690;BME280;69156;55.932;-3.238;2024-03-17T05:54:15;100085.00;;;8.17;73.10
79690;BME280;69156;55.932;-3.238;2024-03-17T05:56:40;100086.00;;;7.98;73.40
79690;BME280;69156;55.932;-3.238;2024-03-17T05:59:06;100083.00;;;7.89;73.60
79690;BME280;69156;55.932;-3.238;2024-03-17T06:01:31;100085.00;;;7.88;73.80
79690;BME280;69156;55.932;-3.238;2024-03-17T06:03:57;100085.00;;;7.85;74.10
79690;BME280;69156;55.932;-3.238;2024-03-17T06:06:22;100085.00;;;8.00;74.20
79690;BME280;69156;55.932;-3.238;2024-03-17T06:08:48;100081.00;;;7.88;72.90
79690;BME280;69156;55.932;-3.238;2024-03-17T06:11:14;100092.00;;;7.53;72.90
79690;BME280;69156;55.932;-3.238;2024-03-17T06:13:39;100092.00;;;7.83;73.10
79690;BME280;69156;55.932;-3.238;2024-03-17T06:16:05;100094.00;;;7.73;73.20
79690;BME280;69156;55.932;-3.238;2024-03-17T06:18:31;100098.00;;;7.83;73.40
79690;BME280;69156;55.932;-3.238;2024-03-17T06:20:57;100093.00;;;7.88;73.30
79690;BME280;69156;55.932;-3.238;2024-03-17T06:23:22;100091.00;;;7.88;73.20
79690;BME280;69156;55.932;-3.238;2024-03-17T06:25:48;100098.00;;;7.82;73.20
79690;BME280;69156;55.932;-3.238;2024-03-17T06:28:15;100094.00;;;7.87;73.00
79690;BME280;69156;55.932;-3.238;2024-03-17T06:30:41;100098.00;;;7.81;72.90
79690;BME280;69156;55.932;-3.238;2024-03-17T06:33:07;100101.00;;;7.89;73.10
79690;BME280;69156;55.932;-3.238;2024-03-17T06:35:32;100105.00;;;7.81;73.00
79690;BME280;69156;55.932;-3.238;2024-03-17T06:37:59;100106.00;;;7.90;72.90
79690;BME280;69156;55.932;-3.238;2024-03-17T06:40:25;100107.00;;;7.61;73.30
79690;BME280;69156;55.932;-3.238;2024-03-17T06:42:50;100105.00;;;7.76;73.50
79690;BME280;69156;55.932;-3.238;2024-03-17T06:45:16;100099.00;;;7.78;73.40
79690;BME280;69156;55.932;-3.238;2024-03-17T06:47:42;100094.00;;;7.68;73.10
79690;BME280;69156;55.932;-3.238;2024-03-17T06:50:08;100094.00;;;7.77;73.30
79690;BME280;69156;55.932;-3.238;2024-03-17T06:52:34;100096.00;;;7.72;73.20
79690;BME280;69156;55.932;-3.238;2024-03-17T06:54:59;100097.00;;;7.56;73.30
79690;BME280;69156;55.932;-3.238;2024-03-17T06:57:25;100094.00;;;7.64;73.30
79690;BME280;69156;55.932;-3.238;2024-03-17T06:59:50;100100.00;;;7.66;73.20
79690;BME280;69156;55.932;-3.238;2024-03-17T07:02:16;100101.00;;;7.56;73.20
79690;BME280;69156;55.932;-3.238;2024-03-17T07:04:42;100106.00;;;7.64;73.30
79690;BME280;69156;55.932;-3.238;2024-03-17T07:07:08;100112.00;;;7.74;73.20
79690;BME280;69156;55.932;-3.238;2024-03-17T07:09:33;100111.00;;;7.44;72.90
79690;BME280;69156;55.932;-3.238;2024-03-17T07:11:59;100111.00;;;7.61;73.20
79690;BME280;69156;55.932;-3.238;2024-03-17T07:14:24;100114.00;;;7.49;73.10
79690;BME280;69156;55.932;-3.238;2024-03-17T07:16:50;100118.00;;;7.47;73.50
79690;BME280;69156;55.932;-3.238;2024-03-17T07:19:15;100125.00;;;7.47;73.60
79690;BME280;69156;55.932;-3.238;2024-03-17T07:21:41;100129.00;;;7.37;73.60
79690;BME280;69156;55.932;-3.238;2024-03-17T07:24:07;100131.00;;;7.41;73.60
79690;BME280;69156;55.932;-3.238;2024-03-17T07:26:32;100131.00;;;7.52;74.10
79690;BME280;69156;55.932;-3.238;2024-03-17T07:28:58;100132.00;;;7.61;73.90
79690;BME280;69156;55.932;-3.238;2024-03-17T07:31:23;100129.00;;;7.74;73.20
79690;BME280;69156;55.932;-3.238;2024-03-17T07:33:49;100132.00;;;7.79;72.80
79690;BME280;69156;55.932;-3.238;2024-03-17T07:36:15;100136.00;;;7.67;73.30
79690;BME280;69156;55.932;-3.238;2024-03-17T07:38:40;100134.00;;;7.73;73.40
79690;BME280;69156;55.932;-3.238;2024-03-17T07:41:08;100130.00;;;7.61;73.80
79690;BME280;69156;55.932;-3.238;2024-03-17T07:43:35;100129.00;;;7.77;73.30
79690;BME280;69156;55.932;-3.238;2024-03-17T07:46:03;100128.00;;;7.73;73.60
79690;BME280;69156;55.932;-3.238;2024-03-17T07:48:29;100127.00;;;7.63;73.60
79690;BME280;69156;55.932;-3.238;2024-03-17T07:50:56;100128.00;;;7.70;73.80
79690;BME280;69156;55.932;-3.238;2024-03-17T07:53:21;100128.00;;;7.63;73.70
79690;BME280;69156;55.932;-3.238;2024-03-17T07:55:47;100132.00;;;7.74;73.60
79690;BME280;69156;55.932;-3.238;2024-03-17T07:58:21;100129.00;;;7.75;73.70
79690;BME280;69156;55.932;-3.238;2024-03-17T08:00:47;100130.00;;;7.72;74.00
79690;BME280;69156;55.932;-3.238;2024-03-17T08:03:12;100127.00;;;7.85;73.90
79690;BME280;69156;55.932;-3.238;2024-03-17T08:05:38;100126.00;;;7.90;74.00
79690;BME280;69156;55.932;-3.238;2024-03-17T08:08:04;100121.00;;;8.00;74.30
79690;BME280;69156;55.932;-3.238;2024-03-17T08:10:29;100113.00;;;8.04;74.30
79690;BME280;69156;55.932;-3.238;2024-03-17T08:12:55;100114.00;;;8.21;74.10
79690;BME280;69156;55.932;-3.238;2024-03-17T08:15:21;100110.00;;;8.36;74.10
79690;BME280;69156;55.932;-3.238;2024-03-17T08:17:46;100110.00;;;8.39;74.30
79690;BME280;69156;55.932;-3.238;2024-03-17T08:20:12;100108.00;;;8.38;74.00
79690;BME280;69156;55.932;-3.238;2024-03-17T08:22:37;100109.00;;;8.43;74.00
79690;BME280;69156;55.932;-3.238;2024-03-17T08:25:03;100107.00;;;8.68;74.20
79690;BME280;69156;55.932;-3.238;2024-03-17T08:27:29;100106.00;;;8.77;74.10
79690;BME280;69156;55.932;-3.238;2024-03-17T08:29:55;100107.00;;;8.87;74.20
79690;BME280;69156;55.932;-3.238;2024-03-17T08:32:20;100103.00;;;8.84;74.10
79690;BME280;69156;55.932;-3.238;2024-03-17T08:34:46;100108.00;;;8.95;73.70
79690;BME280;69156;55.932;-3.238;2024-03-17T08:37:12;100106.00;;;9.08;73.50
79690;BME280;69156;55.932;-3.238;2024-03-17T08:39:38;100096.00;;;9.17;72.40
79690;BME280;69156;55.932;-3.238;2024-03-17T08:42:03;100098.00;;;9.16;72.30
79690;BME280;69156;55.932;-3.238;2024-03-17T08:44:29;100103.00;;;9.28;72.40
79690;BME280;69156;55.932;-3.238;2024-03-17T08:46:54;100109.00;;;9.33;72.60
79690;BME280;69156;55.932;-3.238;2024-03-17T08:49:20;100102.00;;;9.51;72.10
79690;BME280;69156;55.932;-3.238;2024-03-17T08:51:46;100101.00;;;9.50;72.40
79690;BME280;69156;55.932;-3.238;2024-03-17T08:54:11;100099.00;;;9.62;71.60
79690;BME280;69156;55.932;-3.238;2024-03-17T08:56:37;100098.00;;;9.42;72.00
79690;BME280;69156;55.932;-3.238;2024-03-17T08:59:02;100104.00;;;9.51;72.40
79690;BME280;69156;55.932;-3.238;2024-03-17T09:01:28;100101.00;;;9.49;72.80
79690;BME280;69156;55.932;-3.238;2024-03-17T09:03:53;100103.00;;;9.52;73.00
79690;BME280;69156;55.932;-3.238;2024-03-17T09:06:19;100106.00;;;9.46;72.90
79690;BME280;69156;55.932;-3.238;2024-03-17T09:08:45;100106.00;;;9.51;73.00
79690;BME280;69156;55.932;-3.238;2024-03-17T09:11:13;100108.00;;;9.64;73.00
79690;BME280;69156;55.932;-3.238;2024-03-17T09:13:39;100109.00;;;9.61;73.10
79690;BME280;69156;55.932;-3.238;2024-03-17T09:16:04;100111.00;;;9.78;72.50
79690;BME280;69156;55.932;-3.238;2024-03-17T09:18:32;100113.00;;;9.77;72.60
79690;BME280;69156;55.932;-3.238;2024-03-17T09:20:59;100112.00;;;9.87;72.50
79690;BME280;69156;55.932;-3.238;2024-03-17T09:23:25;100112.00;;;10.09;72.00
79690;BME280;69156;55.932;-3.238;2024-03-17T09:25:58;100113.00;;;10.17;72.60
79690;BME280;69156;55.932;-3.238;2024-03-17T09:28:24;100113.00;;;10.30;72.20
79690;BME280;69156;55.932;-3.238;2024-03-17T09:30:50;100116.00;;;10.28;72.50
79690;BME280;69156;55.932;-3.238;2024-03-17T09:33:15;100113.00;;;10.40;72.00
79690;BME280;69156;55.932;-3.238;2024-03-17T09:35:41;100114.00;;;10.45;71.80
79690;BME280;69156;55.932;-3.238;2024-03-17T09:38:06;100113.00;;;10.50;72.00
79690;BME280;69156;55.932;-3.238;2024-03-17T09:40:32;100114.00;;;10.36;72.60
79690;BME280;69156;55.932;-3.238;2024-03-17T09:42:58;100114.00;;;10.59;72.50
79690;BME280;69156;55.932;-3.238;2024-03-17T09:45:24;100110.00;;;10.73;72.60
79690;BME280;69156;55.932;-3.238;2024-03-17T09:47:50;100111.00;;;10.77;72.20
79690;BME280;69156;55.932;-3.238;2024-03-17T09:50:16;100110.00;;;11.01;71.30
79690;BME280;69156;55.932;-3.238;2024-03-17T09:52:42;100111.00;;;10.91;71.30
79690;BME280;69156;55.932;-3.238;2024-03-17T09:55:09;100110.00;;;11.12;70.50
79690;BME280;69156;55.932;-3.238;2024-03-17T09:57:35;100109.00;;;11.10;70.50
79690;BME280;69156;55.932;-3.238;2024-03-17T10:00:04;100111.00;;;11.21;70.20
79690;BME280;69156;55.932;-3.238;2024-03-17T10:02:35;100110.00;;;11.50;70.50
79690;BME280;69156;55.932;-3.238;2024-03-17T10:05:01;100103.00;;;11.31;70.30
79690;BME280;69156;55.932;-3.238;2024-03-17T10:07:37;100099.00;;;11.51;70.20
79690;BME280;69156;55.932;-3.238;2024-03-17T10:10:11;100096.00;;;11.45;70.00
79690;BME280;69156;55.932;-3.238;2024-03-17T10:12:36;100101.00;;;11.49;69.70
79690;BME280;69156;55.932;-3.238;2024-03-17T10:15:02;100110.00;;;11.31;70.50
79690;BME280;69156;55.932;-3.238;2024-03-17T10:17:30;100108.00;;;11.40;70.50
79690;BME280;69156;55.932;-3.238;2024-03-17T10:20:11;100108.00;;;11.29;70.10
79690;BME280;69156;55.932;-3.238;2024-03-17T10:22:37;100110.00;;;11.22;70.50
79690;BME280;69156;55.932;-3.238;2024-03-17T10:25:03;100108.00;;;11.19;71.20
79690;BME280;69156;55.932;-3.238;2024-03-17T10:27:29;100107.00;;;11.33;70.80
79690;BME280;69156;55.932;-3.238;2024-03-17T10:29:54;100105.00;;;11.40;71.10
79690;BME280;69156;55.932;-3.238;2024-03-17T10:32:20;100097.00;;;11.48;71.20
79690;BME280;69156;55.932;-3.238;2024-03-17T10:34:46;100096.00;;;11.74;70.70
79690;BME280;69156;55.932;-3.238;2024-03-17T10:37:14;100097.00;;;11.78;70.50
79690;BME280;69156;55.932;-3.238;2024-03-17T10:39:41;100107.00;;;11.80;70.10
79690;BME280;69156;55.932;-3.238;2024-03-17T10:42:09;100113.00;;;11.95;70.30
79690;BME280;69156;55.932;-3.238;2024-03-17T10:44:37;100114.00;;;11.71;71.00
79690;BME280;69156;55.932;-3.238;2024-03-17T10:47:04;100110.00;;;11.82;70.30
79690;BME280;69156;55.932;-3.238;2024-03-17T10:49:31;100108.00;;;11.79;70.30
79690;BME280;69156;55.932;-3.238;2024-03-17T10:51:58;100108.00;;;11.86;70.70
79690;BME280;69156;55.932;-3.238;2024-03-17T10:54:25;100110.00;;;11.84;70.20
79690;BME280;69156;55.932;-3.238;2024-03-17T10:56:53;100112.00;;;11.74;70.00
79690;BME280;69156;55.932;-3.238;2024-03-17T10:59:22;100112.00;;;11.76;69.70
79690;BME280;69156;55.932;-3.238;2024-03-17T11:01:52;100114.00;;;11.92;70.00
79690;BME280;69156;55.932;-3.238;2024-03-17T11:04:18;100114.00;;;11.84;69.70
79690;BME280;69156;55.932;-3.238;2024-03-17T11:06:44;100109.00;;;11.97;69.90
79690;BME280;69156;55.932;-3.238;2024-03-17T11:09:14;100112.00;;;11.81;70.20
79690;BME280;69156;55.932;-3.238;2024-03-17T11:11:40;100112.00;;;11.76;70.80
79690;BME280;69156;55.932;-3.238;2024-03-17T11:14:21;100111.00;;;12.03;70.10
79690;BME280;69156;55.932;-3.238;2024-03-17T11:16:47;100113.00;;;11.79;71.20
79690;BME280;69156;55.932;-3.238;2024-03-17T11:19:15;100111.00;;;11.96;70.80
79690;BME280;69156;55.932;-3.238;2024-03-17T11:21:41;100109.00;;;12.02;70.20
79690;BME280;69156;55.932;-3.238;2024-03-17T11:24:18;100109.00;;;12.01;69.90
79690;BME280;69156;55.932;-3.238;2024-03-17T11:26:44;100113.00;;;12.14;69.60
79690;BME280;69156;55.932;-3.238;2024-03-17T11:29:26;100111.00;;;12.20;69.90
79690;BME280;69156;55.932;-3.238;2024-03-17T11:31:52;100114.00;;;12.27;69.70
79690;BME280;69156;55.932;-3.238;2024-03-17T11:34:35;100114.00;;;12.23;70.40
79690;BME280;69156;55.932;-3.238;2024-03-17T11:37:02;100110.00;;;12.49;69.90
79690;BME280;69156;55.932;-3.238;2024-03-17T11:40:00;100103.00;;;12.73;69.10
79690;BME280;69156;55.932;-3.238;2024-03-17T11:42:26;100111.00;;;12.99;69.00
79690;BME280;69156;55.932;-3.238;2024-03-17T11:44:57;100111.00;;;12.89;67.90
79690;BME280;69156;55.932;-3.238;2024-03-17T11:47:23;100106.00;;;12.77;67.90
79690;BME280;69156;55.932;-3.238;2024-03-17T11:49:51;100103.00;;;12.73;68.20
79690;BME280;69156;55.932;-3.238;2024-03-17T11:52:16;100101.00;;;12.77;68.20
79690;BME280;69156;55.932;-3.238;2024-03-17T11:54:44;100099.00;;;12.59;67.80
79690;BME280;69156;55.932;-3.238;2024-03-17T11:57:11;100097.00;;;12.90;68.00
79690;BME280;69156;55.932;-3.238;2024-03-17T11:59:38;100093.00;;;12.94;68.00
79690;BME280;69156;55.932;-3.238;2024-03-17T12:02:10;100089.00;;;13.03;67.80
79690;BME280;69156;55.932;-3.238;2024-03-17T12:04:39;100087.00;;;13.18;67.90
79690;BME280;69156;55.932;-3.238;2024-03-17T12:07:11;100084.00;;;13.30;67.10
79690;BME280;69156;55.932;-3.238;2024-03-17T12:09:37;100086.00;;;13.32;67.10
79690;BME280;69156;55.932;-3.238;2024-03-17T12:12:04;100084.00;;;13.28;66.90
79690;BME280;69156;55.932;-3.238;2024-03-17T12:14:31;100085.00;;;13.43;66.90
79690;BME280;69156;55.932;-3.238;2024-03-17T12:16:59;100083.00;;;13.40;67.30
79690;BME280;69156;55.932;-3.238;2024-03-17T12:19:25;100081.00;;;13.48;67.10
79690;BME280;69156;55.932;-3.238;2024-03-17T12:21:52;100075.00;;;13.51;66.50
79690;BME280;69156;55.932;-3.238;2024-03-17T12:24:19;100075.00;;;13.56;66.90
79690;BME280;69156;55.932;-3.238;2024-03-17T12:26:46;100075.00;;;13.83;66.10
79690;BME280;69156;55.932;-3.238;2024-03-17T12:29:28;100075.00;;;13.78;65.40
79690;BME280;69156;55.932;-3.238;2024-03-17T12:31:55;100074.00;;;13.69;65.60
79690;BME280;69156;55.932;-3.238;2024-03-17T12:34:23;100067.00;;;13.78;66.00
79690;BME280;69156;55.932;-3.238;2024-03-17T12:36:50;100063.00;;;13.92;65.70
79690;BME280;69156;55.932;-3.238;2024-03-17T12:39:18;100061.00;;;13.99;65.40
79690;BME280;69156;55.932;-3.238;2024-03-17T12:41:44;100059.00;;;13.75;65.60
79690;BME280;69156;55.932;-3.238;2024-03-17T12:44:21;100055.00;;;13.87;65.00